Petrovskij Zavod, Russia
Current Conditions -  °F | °C
As of 9:00 PM on Tuesday 21 Oct 2014 (Local Time) from UIUU Reporting Station
Clear Clear  
Wind Chill: 13°   Ceiling: Unl
Heat Index: 23°   Visibility: 6mi
Dew Point: 10°   Wind: 9mph
Humidity: 59%   Direction: 270°W
Pressure: 29.94"   Gusts: NA
Location:  51.32°N, 108.87°E
Report Text: UIUU 211200Z 27004MPS 9999 SKC M05/M12 Q1014 NOSIG RMKQFE716/0955 26CLRD60
Loading
Personal Weather Stations






























Interactive Weather Map
Tropical Storm Tracking
New forecast layout! Learn more

10-Day Weather Forecast

Advertisements
Track Severe Weather on mobile